createdAt,value
2023-04-29T00:02:16.814Z,65.78
2023-04-29T00:04:45.436Z,74.07
2023-04-29T00:07:15.412Z,75.47
2023-04-29T00:09:43.963Z,71.97
2023-04-29T00:12:13.406Z,80.18
2023-04-29T00:14:43.378Z,80.97
2023-04-29T00:17:11.923Z,89.15
2023-04-29T00:19:40.212Z,83.65
2023-04-29T00:22:08.363Z,71.82
2023-04-29T00:24:36.489Z,72.03
2023-04-29T00:27:05.784Z,68.68
2023-04-29T00:29:35.421Z,72.05
2023-04-29T00:32:03.553Z,66.68
2023-04-29T00:34:31.725Z,70.43
2023-04-29T00:36:59.862Z,68.53
2023-04-29T00:39:27.924Z,79.45
2023-04-29T00:41:56.167Z,68.28
2023-04-29T00:44:24.213Z,63.53
2023-04-29T00:46:53.548Z,68.25
2023-04-29T00:49:22.103Z,72.50
2023-04-29T00:51:51.546Z,70.97
2023-04-29T00:54:20.079Z,68.07
2023-04-29T00:56:48.490Z,66.10
2023-04-29T00:59:17.350Z,59.55
2023-04-29T01:01:46.032Z,55.92
2023-04-29T01:04:17.473Z,62.67
2023-04-29T01:06:54.396Z,59.88
2023-04-29T01:09:34.103Z,52.60
2023-04-29T01:12:12.685Z,57.78
2023-04-29T01:14:44.714Z,62.28
2023-04-29T01:17:16.882Z,56.72
2023-04-29T01:19:51.154Z,60.83
2023-04-29T01:22:20.229Z,52.00
2023-04-29T01:24:49.787Z,59.72
2023-04-29T01:27:30.549Z,62.20
2023-04-29T01:30:18.349Z,54.35
2023-04-29T01:32:55.012Z,56.22
2023-04-29T01:35:34.698Z,61.10
2023-04-29T01:38:15.273Z,56.25
2023-04-29T01:40:56.597Z,63.47
2023-04-29T01:43:29.694Z,55.78
2023-04-29T01:46:00.725Z,58.70
2023-04-29T01:48:30.038Z,62.05
2023-04-29T01:50:58.180Z,58.15
2023-04-29T01:53:26.231Z,50.17
2023-04-29T01:55:55.895Z,53.40
2023-04-29T01:58:28.376Z,57.35
2023-04-29T02:01:12.006Z,49.70
2023-04-29T02:03:41.407Z,56.00
2023-04-29T02:06:11.488Z,50.05
2023-04-29T02:08:39.655Z,54.90
2023-04-29T02:11:09.348Z,56.25
2023-04-29T02:13:42.165Z,76.85
2023-04-29T02:16:11.956Z,59.90
2023-04-29T02:18:44.590Z,58.53
2023-04-29T02:21:12.676Z,47.90
2023-04-29T02:23:40.787Z,55.13
2023-04-29T02:26:10.877Z,48.13
2023-04-29T02:28:39.031Z,58.67
2023-04-29T02:31:07.281Z,50.25
2023-04-29T02:33:35.367Z,42.08
2023-04-29T02:36:03.756Z,49.85
2023-04-29T02:38:31.889Z,50.00
2023-04-29T02:40:59.913Z,54.88
2023-04-29T02:43:31.157Z,55.38
2023-04-29T02:46:00.375Z,50.50
2023-04-29T02:48:28.765Z,50.22
2023-04-29T02:50:56.889Z,51.13
2023-04-29T02:53:24.937Z,53.55
2023-04-29T02:55:53.132Z,57.45
2023-04-29T02:58:21.170Z,48.53
2023-04-29T03:00:51.050Z,43.05
2023-04-29T03:03:19.460Z,54.67
2023-04-29T03:05:47.825Z,47.40
2023-04-29T03:08:16.627Z,47.20
2023-04-29T03:10:44.825Z,48.83
2023-04-29T03:13:12.979Z,46.22
2023-04-29T03:15:41.939Z,55.50
2023-04-29T03:18:11.559Z,52.65
2023-04-29T03:20:42.794Z,67.68
2023-04-29T03:23:10.810Z,76.35
2023-04-29T03:25:39.511Z,59.53
2023-04-29T03:28:08.795Z,51.95
2023-04-29T03:30:38.207Z,63.35
2023-04-29T03:33:06.407Z,61.50
2023-04-29T03:35:36.305Z,54.15
2023-04-29T03:38:27.275Z,50.75
2023-04-29T03:40:56.514Z,53.13
2023-04-29T03:43:24.621Z,51.38
2023-04-29T03:45:52.780Z,57.72
2023-04-29T03:48:24.003Z,56.42
2023-04-29T03:50:54.977Z,60.55
2023-04-29T03:53:23.267Z,53.67
2023-04-29T03:55:51.480Z,54.55
2023-04-29T03:58:19.616Z,55.70
2023-04-29T04:00:47.986Z,51.97
2023-04-29T04:03:23.026Z,59.50
2023-04-29T04:05:51.503Z,56.30
2023-04-29T04:08:20.963Z,53.38
2023-04-29T04:10:53.821Z,47.72
2023-04-29T04:13:35.956Z,54.10
2023-04-29T04:16:04.882Z,56.08
2023-04-29T04:18:32.945Z,54.13
2023-04-29T04:21:06.988Z,70.05
2023-04-29T04:23:38.069Z,50.85
2023-04-29T04:26:06.353Z,60.40
2023-04-29T04:28:55.780Z,57.20
2023-04-29T04:31:46.802Z,62.38
2023-04-29T04:34:16.187Z,56.50
2023-04-29T04:36:46.521Z,56.10
2023-04-29T04:39:15.895Z,60.85
2023-04-29T04:41:44.381Z,55.33
2023-04-29T04:44:13.418Z,47.25
2023-04-29T04:47:02.174Z,51.67
2023-04-29T04:49:56.503Z,56.70
2023-04-29T04:52:24.559Z,55.92
2023-04-29T04:55:23.860Z,67.22
2023-04-29T04:57:52.684Z,49.88
2023-04-29T05:00:21.280Z,57.38
2023-04-29T05:02:49.514Z,66.53
2023-04-29T05:05:17.806Z,58.92
2023-04-29T05:07:46.175Z,69.15
2023-04-29T05:10:15.075Z,61.83
2023-04-29T05:15:19.161Z,53.53
2023-04-29T05:17:49.835Z,55.15
2023-04-29T05:20:18.143Z,50.88
2023-04-29T05:22:46.236Z,53.15
2023-04-29T05:25:15.669Z,59.65
2023-04-29T05:27:43.970Z,48.17
2023-04-29T05:30:18.612Z,46.55
2023-04-29T05:32:48.731Z,58.47
2023-04-29T05:35:18.711Z,59.22
2023-04-29T05:37:47.020Z,56.55
2023-04-29T05:40:37.373Z,48.60
2023-04-29T05:43:37.509Z,45.47
2023-04-29T05:46:07.706Z,46.42
2023-04-29T05:48:36.195Z,57.33
2023-04-29T05:51:04.328Z,49.50
2023-04-29T05:53:34.437Z,48.72
2023-04-29T05:56:04.868Z,44.78
2023-04-29T05:58:32.979Z,47.65
2023-04-29T06:01:01.490Z,45.28
2023-04-29T06:03:31.717Z,42.50
2023-04-29T06:06:23.738Z,46.95
2023-04-29T06:09:08.570Z,40.20
2023-04-29T06:11:42.067Z,41.88
2023-04-29T06:14:10.185Z,38.60
2023-04-29T06:16:38.787Z,48.10
2023-04-29T06:19:08.465Z,42.50
2023-04-29T06:21:36.526Z,41.45
2023-04-29T06:24:05.412Z,34.80
2023-04-29T06:26:33.587Z,40.40
2023-04-29T06:29:01.684Z,40.15
2023-04-29T06:31:29.841Z,31.00
2023-04-29T06:34:02.322Z,31.77
2023-04-29T06:36:32.390Z,39.03
2023-04-29T06:39:03.379Z,36.25
2023-04-29T06:41:50.376Z,43.92
2023-04-29T06:44:34.599Z,35.40
2023-04-29T06:47:21.453Z,42.53
2023-04-29T06:49:56.668Z,42.08
2023-04-29T06:52:26.144Z,35.95
2023-04-29T06:54:54.284Z,37.83
2023-04-29T06:57:22.427Z,29.15
2023-04-29T06:59:50.771Z,38.75
2023-04-29T07:02:19.160Z,34.20
2023-04-29T07:04:49.607Z,29.55
2023-04-29T07:07:18.014Z,26.40
2023-04-29T07:09:47.566Z,31.02
2023-04-29T07:12:15.649Z,23.48
2023-04-29T07:14:44.004Z,28.42
2023-04-29T07:17:14.028Z,26.20
2023-04-29T07:19:43.498Z,26.38
2023-04-29T07:22:12.417Z,22.67
2023-04-29T07:24:40.560Z,28.70
2023-04-29T07:27:09.931Z,25.90
2023-04-29T07:29:38.630Z,27.70
2023-04-29T07:32:06.890Z,21.50
2023-04-29T07:34:37.221Z,19.08
2023-04-29T07:37:05.613Z,27.98
2023-04-29T07:39:35.398Z,18.65
2023-04-29T07:42:04.583Z,19.30
2023-04-29T07:44:34.540Z,16.65
2023-04-29T07:47:02.672Z,19.95
2023-04-29T07:49:30.684Z,17.45
2023-04-29T07:51:59.112Z,16.35
2023-04-29T07:54:27.765Z,20.13
2023-04-29T07:56:55.775Z,15.93
2023-04-29T07:59:24.173Z,15.30
2023-04-29T08:01:53.917Z,16.02
2023-04-29T08:04:22.644Z,13.85
2023-04-29T08:06:59.333Z,12.20
2023-04-29T08:09:27.353Z,11.27
2023-04-29T08:11:55.525Z,12.80
2023-04-29T08:14:23.690Z,11.10
2023-04-29T08:16:53.351Z,12.93
2023-04-29T08:19:21.557Z,13.43
2023-04-29T08:21:52.156Z,10.55
2023-04-29T08:24:20.762Z,11.00
2023-04-29T08:26:48.841Z,10.00
2023-04-29T08:29:17.057Z,9.23
2023-04-29T08:31:45.252Z,11.77
2023-04-29T08:34:14.915Z,12.23
2023-04-29T08:36:43.003Z,6.50
2023-04-29T08:39:10.989Z,9.35
2023-04-29T08:41:39.262Z,9.48
2023-04-29T08:44:07.484Z,9.77
2023-04-29T08:46:35.661Z,7.40
2023-04-29T08:49:05.145Z,11.48
2023-04-29T08:51:34.977Z,8.30
2023-04-29T08:54:03.121Z,9.65
2023-04-29T08:56:32.350Z,6.97
2023-04-29T08:59:02.614Z,8.57
2023-04-29T09:01:33.258Z,12.18
2023-04-29T09:04:11.231Z,8.45
2023-04-29T09:06:40.704Z,9.43
2023-04-29T09:09:09.411Z,6.40
2023-04-29T09:11:38.773Z,6.47
2023-04-29T09:14:08.088Z,5.25
2023-04-29T09:16:38.166Z,7.97
2023-04-29T09:19:06.405Z,6.45
2023-04-29T09:21:34.559Z,9.32
2023-04-29T09:24:04.855Z,8.57
2023-04-29T09:26:43.700Z,7.35
2023-04-29T09:29:13.934Z,6.28
2023-04-29T09:31:42.750Z,7.25
2023-04-29T09:34:12.027Z,7.43
2023-04-29T09:36:42.663Z,5.70
2023-04-29T09:39:13.885Z,6.93
2023-04-29T09:41:44.930Z,8.00
2023-04-29T09:44:12.932Z,7.15
2023-04-29T09:46:41.161Z,6.10
2023-04-29T09:52:01.010Z,8.23
2023-04-29T09:54:32.243Z,8.73
2023-04-29T09:57:02.229Z,5.65
2023-04-29T09:59:43.507Z,7.43
2023-04-29T10:02:16.502Z,5.30
2023-04-29T10:04:47.293Z,6.13
2023-04-29T10:07:17.098Z,5.45
2023-04-29T10:09:47.705Z,4.82
2023-04-29T10:12:18.504Z,4.53
2023-04-29T10:14:52.003Z,6.55
2023-04-29T10:17:25.904Z,3.63
2023-04-29T10:22:35.090Z,5.78
2023-04-29T10:25:20.559Z,7.13
2023-04-29T10:27:51.968Z,6.63
2023-04-29T10:30:36.627Z,5.40
2023-04-29T10:33:06.059Z,6.47
2023-04-29T10:35:34.859Z,5.32
2023-04-29T10:38:07.053Z,5.18
2023-04-29T10:40:43.003Z,6.00
2023-04-29T10:43:15.140Z,6.90
2023-04-29T10:51:33.720Z,4.25
2023-04-29T10:54:07.248Z,6.30
2023-04-29T10:56:47.397Z,5.43
2023-04-29T10:59:16.664Z,5.22
2023-04-29T11:01:52.280Z,3.97
2023-04-29T11:07:50.776Z,5.40
2023-04-29T11:10:36.937Z,3.00
2023-04-29T11:13:26.066Z,2.45
2023-04-29T11:22:26.850Z,2.70
2023-04-29T11:31:03.594Z,3.85
2023-04-29T11:33:33.810Z,3.45
2023-04-29T11:36:02.277Z,3.53
2023-04-29T11:38:31.908Z,3.10
2023-04-29T11:41:01.216Z,2.15
2023-04-29T11:43:29.196Z,3.45
2023-04-29T11:45:57.517Z,3.58
2023-04-29T11:48:29.618Z,4.20
2023-04-29T11:51:00.502Z,4.38
2023-04-29T11:53:28.732Z,2.28
2023-04-29T11:55:56.969Z,3.75
2023-04-29T11:58:26.127Z,4.07
2023-04-29T12:00:54.186Z,5.55
2023-04-29T12:03:23.267Z,3.50
2023-04-29T12:05:56.260Z,3.88
2023-04-29T12:08:25.328Z,3.38
2023-04-29T12:10:56.043Z,2.30
2023-04-29T12:13:25.409Z,5.03
2023-04-29T12:15:54.307Z,3.15
2023-04-29T12:18:23.388Z,3.47
2023-04-29T12:20:53.369Z,4.38
2023-04-29T12:23:23.589Z,2.92
2023-04-29T12:25:53.242Z,4.00
2023-04-29T12:28:22.580Z,7.97
2023-04-29T12:30:53.869Z,3.08
2023-04-29T12:33:24.547Z,6.03
2023-04-29T12:35:55.600Z,4.25
2023-04-29T12:38:26.938Z,2.45
2023-04-29T12:40:55.466Z,3.33
2023-04-29T12:43:29.656Z,8.10
2023-04-29T12:49:07.856Z,4.07
2023-04-29T12:51:37.685Z,5.10
2023-04-29T12:54:07.382Z,2.95
2023-04-29T12:56:35.464Z,5.75
2023-04-29T12:59:08.437Z,3.17
2023-04-29T13:01:36.870Z,3.67
2023-04-29T13:04:06.479Z,3.70
2023-04-29T13:06:35.116Z,3.83
2023-04-29T13:09:04.655Z,3.05
2023-04-29T13:11:34.664Z,2.67
2023-04-29T13:14:03.068Z,3.05
2023-04-29T13:16:31.119Z,5.60
2023-04-29T13:19:17.002Z,6.32
2023-04-29T13:21:47.269Z,4.38
2023-04-29T13:24:18.306Z,4.18
2023-04-29T13:26:49.669Z,3.53
2023-04-29T13:29:19.880Z,2.92
2023-04-29T13:31:48.296Z,6.30
2023-04-29T13:34:16.487Z,4.78
2023-04-29T13:36:44.738Z,4.10
2023-04-29T13:39:14.470Z,2.25
2023-04-29T13:41:45.919Z,3.03
2023-04-29T13:44:27.370Z,4.33
2023-04-29T13:47:02.057Z,4.13
2023-04-29T13:50:01.986Z,2.30
2023-04-29T13:55:13.814Z,3.50
2023-04-29T13:58:31.078Z,3.20
2023-04-29T14:00:54.954Z,5.70
2023-04-29T14:03:15.081Z,2.75
2023-04-29T14:05:43.565Z,2.33
2023-04-29T14:08:11.711Z,2.63
2023-04-29T14:10:39.686Z,2.45
2023-04-29T14:13:09.421Z,3.33
2023-04-29T14:15:37.455Z,5.20
2023-04-29T14:18:08.041Z,5.65
2023-04-29T14:20:36.448Z,2.72
2023-04-29T14:23:04.515Z,2.72
2023-04-29T14:25:33.916Z,2.65
2023-04-29T14:28:04.099Z,1.55
2023-04-29T14:30:33.523Z,4.43
2023-04-29T14:33:01.573Z,2.45
2023-04-29T14:35:30.061Z,6.50
2023-04-29T14:37:58.037Z,4.00
2023-04-29T14:40:26.187Z,2.85
2023-04-29T14:42:54.495Z,3.63
2023-04-29T14:45:22.546Z,6.82
2023-04-29T14:47:52.109Z,3.80
2023-04-29T14:50:20.317Z,4.07
2023-04-29T14:52:48.432Z,4.35
2023-04-29T14:55:16.676Z,5.00
2023-04-29T14:57:46.026Z,7.45
2023-04-29T15:00:15.598Z,3.17
2023-04-29T15:02:43.701Z,3.92
2023-04-29T15:05:13.260Z,5.10
2023-04-29T15:07:41.718Z,5.85
2023-04-29T15:10:10.998Z,5.35
2023-04-29T15:12:39.196Z,5.00
2023-04-29T15:15:08.920Z,4.65
2023-04-29T15:17:37.004Z,5.15
2023-04-29T15:20:06.163Z,4.60
2023-04-29T15:22:35.782Z,4.07
2023-04-29T15:25:03.857Z,5.65
2023-04-29T15:27:32.004Z,4.13
2023-04-29T15:30:00.164Z,4.30
2023-04-29T15:32:31.656Z,4.10
2023-04-29T15:35:00.402Z,4.53
2023-04-29T15:37:28.763Z,6.22
2023-04-29T15:40:00.430Z,4.85
2023-04-29T15:42:28.770Z,5.03
2023-04-29T15:44:56.947Z,2.58
2023-04-29T15:47:25.050Z,1.85
2023-04-29T15:49:53.224Z,6.13
2023-04-29T15:52:21.404Z,7.85
2023-04-29T15:54:49.446Z,4.35
2023-04-29T15:57:18.890Z,3.17
2023-04-29T15:59:47.018Z,4.20
2023-04-29T16:02:15.334Z,5.28
2023-04-29T16:04:43.594Z,3.53
2023-04-29T16:07:12.536Z,3.00
2023-04-29T16:09:40.707Z,3.95
2023-04-29T16:12:11.453Z,5.07
2023-04-29T16:14:41.017Z,2.70
2023-04-29T16:17:09.093Z,3.92
2023-04-29T16:19:37.476Z,3.65
2023-04-29T16:22:06.051Z,2.25
2023-04-29T16:24:34.158Z,3.33
2023-04-29T16:27:04.292Z,2.42
2023-04-29T16:29:32.316Z,3.28
2023-04-29T16:32:01.952Z,1.52
2023-04-29T16:34:30.124Z,2.55
2023-04-29T16:36:58.146Z,1.60
2023-04-29T16:39:26.691Z,2.58
2023-04-29T16:41:54.813Z,3.85
2023-04-29T16:44:22.790Z,1.83
2023-04-29T16:46:51.520Z,2.63
2023-04-29T16:52:12.652Z,4.72
2023-04-29T16:54:41.165Z,5.30
2023-04-29T16:57:09.182Z,3.28
2023-04-29T16:59:37.352Z,3.50
2023-04-29T17:02:05.473Z,2.55
2023-04-29T17:04:34.957Z,2.65
2023-04-29T17:07:03.931Z,4.18
2023-04-29T17:09:32.569Z,3.30
2023-04-29T17:12:03.646Z,4.30
2023-04-29T17:14:31.712Z,5.47
2023-04-29T17:16:59.764Z,2.92
2023-04-29T17:19:27.772Z,6.22
2023-04-29T17:21:57.871Z,2.47
2023-04-29T17:24:26.457Z,4.50
2023-04-29T17:26:54.441Z,5.97
2023-04-29T17:29:22.626Z,2.92
2023-04-29T17:31:59.117Z,5.40
2023-04-29T17:34:30.020Z,7.82
2023-04-29T17:36:59.373Z,6.05
2023-04-29T17:39:27.537Z,6.35
2023-04-29T17:41:55.719Z,10.88
2023-04-29T17:44:23.884Z,4.60
2023-04-29T17:46:52.103Z,8.57
2023-04-29T17:49:20.291Z,5.45
2023-04-29T17:51:48.289Z,10.98
2023-04-29T17:54:17.820Z,6.30
2023-04-29T17:56:45.855Z,7.18
2023-04-29T17:59:13.880Z,9.10
2023-04-29T18:01:42.490Z,10.00
2023-04-29T18:04:10.806Z,9.45
2023-04-29T18:06:38.914Z,5.88
2023-04-29T18:09:07.286Z,6.53
2023-04-29T18:11:39.127Z,7.75
2023-04-29T18:14:07.300Z,9.00
2023-04-29T18:16:35.516Z,8.40
2023-04-29T18:19:03.790Z,8.60
2023-04-29T18:21:31.864Z,10.38
2023-04-29T18:24:00.018Z,5.72
2023-04-29T18:26:28.983Z,5.93
2023-04-29T18:28:58.345Z,5.55
2023-04-29T18:31:26.666Z,8.10
2023-04-29T18:33:54.919Z,12.13
2023-04-29T18:36:23.713Z,9.80
2023-04-29T18:38:51.935Z,12.13
2023-04-29T18:41:19.969Z,8.77
2023-04-29T18:43:47.964Z,8.55
2023-04-29T18:46:17.629Z,10.32
2023-04-29T18:48:45.766Z,9.57
2023-04-29T18:51:13.780Z,10.95
2023-04-29T18:53:41.943Z,11.38
2023-04-29T18:56:10.002Z,10.50
2023-04-29T18:58:38.030Z,9.82
2023-04-29T19:01:06.169Z,11.00
2023-04-29T19:03:35.937Z,9.77
2023-04-29T19:06:04.124Z,9.43
2023-04-29T19:08:32.225Z,10.88
2023-04-29T19:11:00.838Z,8.68
2023-04-29T19:13:29.317Z,8.65
2023-04-29T19:15:57.642Z,7.80
2023-04-29T19:18:28.720Z,11.13
2023-04-29T19:20:58.249Z,9.23
2023-04-29T19:23:26.463Z,15.27
2023-04-29T19:25:54.614Z,16.67
2023-04-29T19:28:22.652Z,8.60
2023-04-29T19:30:52.490Z,14.57
2023-04-29T19:33:20.727Z,16.08
2023-04-29T19:35:51.774Z,13.80
2023-04-29T19:38:21.461Z,9.80
2023-04-29T19:40:49.728Z,9.95
2023-04-29T19:43:17.939Z,11.55
2023-04-29T19:45:46.149Z,9.30
2023-04-29T19:48:14.568Z,10.25
2023-04-29T19:50:42.795Z,10.50
2023-04-29T19:53:11.294Z,13.65
2023-04-29T19:55:41.092Z,9.30
2023-04-29T19:58:09.354Z,12.68
2023-04-29T20:00:37.711Z,9.02
2023-04-29T20:03:06.001Z,16.88
2023-04-29T20:05:34.217Z,9.07
2023-04-29T20:08:02.412Z,10.48
2023-04-29T20:10:30.496Z,9.10
2023-04-29T20:13:00.281Z,15.52
2023-04-29T20:15:28.629Z,13.68
2023-04-29T20:17:56.892Z,8.50
2023-04-29T20:20:26.035Z,9.93
2023-04-29T20:22:57.870Z,9.93
2023-04-29T20:25:27.078Z,7.35
2023-04-29T20:27:55.222Z,12.63
2023-04-29T20:30:25.818Z,9.75
2023-04-29T20:32:54.057Z,7.05
2023-04-29T20:35:22.101Z,7.53
2023-04-29T20:37:50.274Z,9.10
2023-04-29T20:40:18.434Z,7.15
2023-04-29T20:42:46.975Z,7.45
2023-04-29T20:45:15.378Z,5.65
2023-04-29T20:47:45.557Z,5.75
2023-04-29T20:50:13.931Z,12.00
2023-04-29T20:52:42.011Z,10.73
2023-04-29T20:55:10.503Z,12.15
2023-04-29T20:57:39.555Z,10.57
2023-04-29T21:00:09.624Z,10.00
2023-04-29T21:02:37.917Z,8.45
2023-04-29T21:05:09.831Z,9.20
2023-04-29T21:07:38.731Z,6.65
2023-04-29T21:10:07.395Z,7.25
2023-04-29T21:12:35.795Z,8.77
2023-04-29T21:15:04.502Z,11.32
2023-04-29T21:17:32.511Z,6.60
2023-04-29T21:20:00.830Z,6.10
2023-04-29T21:22:30.412Z,5.25
2023-04-29T21:25:00.975Z,10.23
2023-04-29T21:27:29.196Z,9.77
2023-04-29T21:29:57.743Z,7.85
2023-04-29T21:32:25.875Z,8.82
2023-04-29T21:34:54.125Z,8.38
2023-04-29T21:37:22.203Z,7.72
2023-04-29T21:39:51.730Z,7.75
2023-04-29T21:42:23.269Z,9.18
2023-04-29T21:44:51.322Z,9.00
2023-04-29T21:47:19.499Z,10.57
2023-04-29T21:49:48.455Z,10.55
2023-04-29T21:52:16.514Z,7.57
2023-04-29T21:54:44.817Z,9.70
2023-04-29T21:57:14.465Z,11.18
2023-04-29T21:59:42.549Z,8.55
2023-04-29T22:02:22.201Z,12.88
2023-04-29T22:04:51.357Z,8.45
2023-04-29T22:07:20.141Z,11.57
2023-04-29T22:09:49.883Z,8.07
2023-04-29T22:12:20.276Z,7.43
2023-04-29T22:14:48.424Z,11.95
2023-04-29T22:17:16.695Z,8.40
2023-04-29T22:19:44.820Z,9.50
2023-04-29T22:22:12.843Z,13.10
2023-04-29T22:24:40.906Z,8.77
2023-04-29T22:27:09.094Z,4.70
2023-04-29T22:29:39.755Z,6.97
2023-04-29T22:32:08.312Z,6.07
2023-04-29T22:34:36.728Z,15.48
2023-04-29T22:37:04.716Z,9.07
2023-04-29T22:39:32.936Z,11.60
2023-04-29T22:42:01.068Z,10.48
2023-04-29T22:47:50.957Z,6.18
2023-04-29T22:50:19.248Z,7.07
2023-04-29T22:52:49.579Z,4.80
2023-04-29T22:55:17.723Z,8.75
2023-04-29T22:57:45.856Z,7.15
2023-04-29T23:00:15.750Z,7.43
2023-04-29T23:02:43.874Z,6.10
2023-04-29T23:05:13.329Z,20.30
2023-04-29T23:07:41.347Z,9.93
2023-04-29T23:10:10.198Z,10.50
2023-04-29T23:12:38.217Z,12.50
2023-04-29T23:15:07.167Z,7.70
2023-04-29T23:17:37.480Z,15.32
2023-04-29T23:20:06.536Z,9.05
2023-04-29T23:22:36.156Z,8.02
2023-04-29T23:25:04.205Z,10.23
2023-04-29T23:27:32.577Z,5.80
2023-04-29T23:30:00.800Z,12.27
2023-04-29T23:32:28.834Z,7.13
2023-04-29T23:34:57.304Z,7.85
2023-04-29T23:37:25.522Z,10.52
2023-04-29T23:39:56.771Z,10.23
2023-04-29T23:42:26.337Z,11.68
2023-04-29T23:44:54.328Z,6.72
2023-04-29T23:47:22.711Z,6.57
2023-04-29T23:49:50.784Z,7.50
2023-04-29T23:52:18.812Z,10.65
2023-04-29T23:54:46.950Z,10.95
2023-04-29T23:57:16.382Z,9.23
2023-04-29T23:59:45.676Z,7.07
